FW1790 Weather Reports


time (UTC)temp
C
wind
direction
speed
KPH
gust
KPH
rain 1hr
cm
rain 24hr
cm
rain mn
cm
humidity
%
barometer
mb
20210723164018 26 137 8.0 14.5 0.00 1.19 0.00 53 1024.8
20210723163540 25 140 8.0 14.5 0.00 1.19 0.00 54 1024.8
20210723163045 25 146 9.7 14.5 0.00 1.19 0.00 55 1024.8
20210723162611 25 136 8.0 14.5 0.00 1.19 0.00 55 1024.8
20210723162044 25 147 9.7 16.1 0.00 1.19 0.00 55 1024.9
20210723161641 25 129 9.7 14.5 0.00 1.19 0.00 55 1024.9
20210723161212 25 149 8.0 12.9 0.00 1.19 0.00 56 1025.0
20210723160714 25 134 8.0 12.9 0.00 1.19 0.00 56 1025.0
20210723160215 25 129 9.7 14.5 0.00 1.19 0.00 57 1025.0
20210723155743 25 140 11.3 14.5 0.00 1.19 0.00 56 1025.0
20210723155313 25 144 9.7 14.5 0.00 1.19 0.00 56 1025.0
20210723154843 25 133 4.8 9.7 0.00 1.19 0.00 60 1025.0
20210723154412 24 121 6.4 11.3 0.00 1.19 0.00 62 1025.0
20210723153911 24 154 11.3 17.7 0.00 1.19 0.00 61 1025.0
20210723153413 24 144 6.4 11.3 0.00 1.19 0.00 61 1025.0
20210723152943 23 149 6.4 14.5 0.00 1.19 0.00 60 1025.0
20210723152512 23 155 8.0 12.9 0.00 1.19 0.00 61 1025.0
20210723152046 23 152 8.0 12.9 0.00 1.19 0.00 62 1025.0
20210723151515 23 147 4.8 9.7 0.00 1.19 0.00 62 1025.0
20210723151015 23 143 4.8 8.0 0.00 1.19 0.00 62 1025.0
20210723150514 23 156 6.4 9.7 0.00 1.19 0.00 61 1025.0
20210723150012 23 171 8.0 12.9 0.00 1.19 0.00 60 1025.0
20210723145529 23 177 6.4 8.0 0.00 1.19 0.00 61 1025.0
20210723145012 23 146 9.7 12.9 0.00 1.19 0.00 62 1025.0
20210723144514 23 167 11.3 14.5 0.00 1.19 0.00 61 1025.0
20210723144014 23 174 11.3 19.3 0.00 1.19 0.00 62 1025.1
20210723143514 23 161 8.0 12.9 0.00 1.19 0.00 63 1025.0
20210723143043 23 163 9.7 14.5 0.00 1.19 0.00 63 1025.0
20210723142612 23 163 9.7 16.1 0.00 1.19 0.00 63 1025.0
20210723142110 23 164 6.4 11.3 0.00 1.19 0.00 64 1025.0
20210723141615 23 162 9.7 12.9 0.00 1.19 0.00 63 1024.9
20210723141111 23 155 4.8 8.0 0.00 1.19 0.00 64 1024.8
20210723140615 23 179 6.4 11.3 0.00 1.19 0.00 64 1024.9
20210723140109 22 150 6.4 8.0 0.00 1.19 0.00 65 1024.9
20210723135612 22 177 8.0 14.5 0.00 1.19 0.00 67 1024.9
20210723135111 22 158 8.0 17.7 0.00 1.19 0.00 68 1024.9
20210723134613 22 169 6.4 9.7 0.00 1.19 0.00 69 1024.8
20210723134112 22 170 8.0 14.5 0.00 1.19 0.00 68 1024.8
20210723133614 22 196 4.8 9.7 0.00 1.19 0.00 69 1024.9
20210723133112 22 136 6.4 9.7 0.00 1.19 0.00 70 1024.9
20210723132614 22 162 4.8 8.0 0.00 1.19 0.00 71 1024.9
20210723132114 22 141 3.2 4.8 0.00 1.19 0.00 72 1024.8
20210723131610 22 123 8.0 9.7 0.00 1.19 0.00 72 1024.8
20210723131113 22 153 6.4 12.9 0.00 1.19 0.00 71 1024.9
20210723130614 22 119 4.8 6.4 0.00 1.19 0.00 71 1024.9
20210723130113 22 149 6.4 8.0 0.00 1.19 0.00 70 1024.8
20210723125613 21 149 6.4 11.3 0.00 1.19 0.00 71 1024.8
20210723125112 21 189 9.7 12.9 0.00 1.19 0.00 72 1024.6
20210723124616 21 191 9.7 11.3 0.00 1.19 0.00 71 1024.5
20210723124115 21 195 6.4 9.7 0.00 1.19 0.00 71 1024.5
20210723123617 21 176 6.4 9.7 0.00 1.19 0.00 70 1024.4
20210723123114 21 182 8.0 16.1 0.00 1.19 0.00 69 1024.3
20210723122614 21 188 9.7 14.5 0.00 1.19 0.00 69 1024.3
20210723122115 21 170 8.0 14.5 0.00 1.19 0.00 69 1024.2
20210723121613 21 164 4.8 8.0 0.00 1.19 0.00 70 1024.2
20210723121114 21 142 4.8 8.0 0.00 1.19 0.00 69 1024.1
20210723120615 21 165 6.4 9.7 0.00 1.19 0.00 67 1024.1
20210723120112 21 152 6.4 11.3 0.00 1.19 0.00 67 1024.2
20210723115643 21 173 6.4 14.5 0.00 1.19 0.00 67 1024.1
20210723115114 21 167 6.4 12.9 0.00 1.19 0.00 67 1024.1
20210723114611 21 154 4.8 6.4 0.00 1.19 0.00 68 1024.1
20210723114110 22 164 8.0 12.9 0.00 1.19 0.00 67 1024.0
20210723113615 22 181 9.7 12.9 0.00 1.19 0.00 67 1024.0
20210723113111 21 159 6.4 9.7 0.00 1.19 0.00 69 1023.8
20210723112611 21 149 4.8 8.0 0.00 1.19 0.00 70 1023.8
20210723112115 22 162 6.4 9.7 0.00 1.19 0.00 70 1023.8
20210723111613 22 159 8.0 12.9 0.00 1.19 0.00 70 1023.8
20210723111112 22 163 6.4 11.3 0.00 1.19 0.00 70 1023.7
20210723110612 22 176 8.0 12.9 0.00 1.19 0.00 70 1023.7
20210723110112 22 189 8.0 12.9 0.00 1.19 0.00 70 1023.7
20210723105615 22 192 11.3 20.9 0.00 1.19 0.00 70 1023.7
20210723105111 22 195 8.0 11.3 0.00 1.19 0.00 69 1023.7
20210723104614 22 194 9.7 12.9 0.00 1.19 0.00 68 1023.7
20210723104113 22 174 8.0 11.3 0.00 1.19 0.00 67 1023.8
20210723103615 22 189 9.7 14.5 0.00 1.19 0.00 66 1024.0
20210723103110 22 181 8.0 12.9 0.00 1.19 0.00 67 1024.0
20210723102616 22 184 6.4 11.3 0.00 1.19 0.00 68 1023.8
20210723102113 22 163 8.0 11.3 0.00 1.19 0.00 68 1023.8
20210723101616 22 180 8.0 12.9 0.00 1.19 0.00 67 1023.8
20210723101112 22 162 8.0 12.9 0.00 1.19 0.00 67 1023.8
20210723100612 22 167 8.0 14.5 0.00 1.19 0.00 67 1023.8
20210723100141 22 177 6.4 12.9 0.00 1.19 0.00 67 1023.8
20210723095612 22 177 8.0 11.3 0.00 1.19 0.00 66 1023.8
20210723095113 22 173 8.0 11.3 0.00 1.19 0.00 66 1023.8
20210723094611 22 166 8.0 12.9 0.00 1.19 0.00 66 1023.8
20210723094113 22 170 8.0 11.3 0.00 1.19 0.00 66 1023.8
20210723093611 22 192 12.9 17.7 0.00 1.19 0.00 65 1023.8
20210723093142 22 187 8.0 14.5 0.00 1.19 0.00 66 1023.8
20210723092611 22 200 9.7 14.5 0.00 1.19 0.00 67 1023.8
20210723092110 22 190 9.7 14.5 0.00 1.19 0.00 67 1023.8
20210723091611 22 192 8.0 11.3 0.00 1.19 0.00 68 1023.8
20210723091110 21 192 11.3 14.5 0.00 1.19 0.00 68 1024.0
20210723090616 21 202 9.7 12.9 0.00 1.19 0.00 69 1024.0
20210723090113 21 172 6.4 9.7 0.00 1.19 0.00 70 1024.0
20210723085612 21 172 6.4 12.9 0.00 1.19 0.00 71 1024.0
20210723085115 21 173 6.4 11.3 0.00 1.19 0.00 71 1024.0
20210723084614 21 188 6.4 8.0 0.00 1.19 0.00 71 1023.8
20210723084113 21 189 4.8 8.0 0.00 1.19 0.00 71 1023.8
20210723083614 21 152 4.8 9.7 0.00 1.19 0.00 72 1024.0
20210723083144 21 151 4.8 4.8 0.00 1.19 0.00 71 1024.0
20210723082614 21 174 4.8 6.4 0.00 1.19 0.00 71 1024.0
20210723082112 21 177 4.8 6.4 0.00 1.19 0.00 72 1024.0
20210723081615 21 193 3.2 4.8 0.00 1.19 0.00 72 1023.8
20210723081115 21 170 1.6 3.2 0.00 1.19 0.00 73 1024.0
20210723080618 21 174 3.2 4.8 0.00 1.19 0.00 72 1024.0
20210723080113 21 153 1.6 4.8 0.00 1.19 0.00 73 1023.8
20210723075614 21 139 1.6 8.0 0.00 1.19 0.00 73 1023.8
20210723075112 21 146 4.8 6.4 0.00 1.19 0.00 73 1023.8
20210723074613 21 155 3.2 6.4 0.00 1.19 0.00 72 1023.8
20210723074113 21 145 6.4 9.7 0.00 1.19 0.00 72 1023.8
20210723073611 22 127 4.8 6.4 0.00 1.19 0.00 72 1023.7
20210723073113 22 131 4.8 8.0 0.00 1.19 0.00 70 1023.7
20210723072618 22 200 8.0 11.3 0.00 1.19 0.00 67 1023.8
20210723072110 22 135 4.8 6.4 0.00 1.19 0.00 68 1023.8
20210723071612 22 108 3.2 6.4 0.00 1.19 0.00 69 1023.8
20210723071112 22 117 3.2 4.8 0.00 1.19 0.00 66 1023.8
20210723070642 22 137 4.8 6.4 0.00 1.19 0.00 65 1024.0
20210723070113 22 169 4.8 8.0 0.00 1.19 0.00 64 1024.0
20210723065613 22 187 6.4 8.0 0.00 1.19 0.00 64 1024.0
20210723065113 22 194 6.4 8.0 0.00 1.19 0.00 64 1024.0
20210723064612 22 141 3.2 6.4 0.00 1.19 0.00 64 1024.1
20210723064109 23 186 6.4 9.7 0.00 1.19 0.00 63 1024.1
20210723063615 23 213 6.4 9.7 0.00 1.19 0.00 62 1024.1
20210723063112 22 197 6.4 9.7 0.00 1.19 0.00 62 1024.0
20210723062614 22 210 8.0 11.3 0.00 1.19 0.00 63 1023.8
20210723062113 23 213 6.4 8.0 0.00 1.19 0.00 63 1023.8
20210723061612 23 251 8.0 9.7 0.00 1.19 0.00 63 1023.8
20210723061111 23 235 8.0 9.7 0.00 1.19 0.00 63 1023.7
20210723060615 23 213 6.4 8.0 0.00 1.19 0.00 63 1023.7
20210723060112 23 220 6.4 9.7 0.00 1.19 0.00 64 1023.7
20210723055614 22 213 6.4 8.0 0.00 1.19 1.19 65 1023.8
20210723055114 22 208 6.4 9.7 0.00 1.19 1.19 66 1023.8
20210723054612 23 194 4.8 8.0 0.00 1.19 1.19 67 1023.8
20210723054110 23 229 4.8 4.8 0.00 1.19 1.19 66 1023.8
20210723053609 23 179 3.2 4.8 0.00 1.19 1.19 66 1024.0
20210723053115 23 135 1.6 3.2 0.00 1.19 1.19 66 1024.1
20210723052613 23 0 0.0 0.0 0.00 1.19 1.19 65 1024.1
20210723052112 23 50 4.8 6.4 0.00 1.19 1.19 65 1024.1
20210723051610 23 334 0.0 1.6 0.00 1.19 1.19 64 1024.2
20210723051112 23 225 0.0 3.2 0.00 1.19 1.19 63 1024.1
20210723050612 23 141 3.2 4.8 0.00 1.19 1.19 64 1024.0
20210723050113 23 163 3.2 4.8 0.00 1.19 1.19 63 1024.1
20210723045613 23 184 4.8 11.3 0.00 1.19 1.19 63 1024.2
20210723045112 23 196 8.0 9.7 0.00 1.19 1.19 63 1024.2
20210723044613 23 184 4.8 8.0 0.00 1.19 1.19 63 1024.2
20210723044113 23 190 11.3 14.5 0.00 1.19 1.19 62 1024.3
20210723043614 23 200 9.7 11.3 0.00 1.19 1.19 61 1024.3
20210723043115 23 180 3.2 4.8 0.00 1.19 1.19 61 1024.3
20210723042610 23 177 4.8 6.4 0.00 1.19 1.19 61 1024.3
20210723042112 23 165 4.8 9.7 0.00 1.19 1.19 61 1024.3
20210723041611 23 183 6.4 8.0 0.00 1.19 1.19 62 1024.3
20210723041113 23 156 3.2 6.4 0.00 1.19 1.19 63 1024.3
20210723040617 23 177 4.8 8.0 0.00 1.19 1.19 63 1024.3
20210723040113 23 209 4.8 9.7 0.00 1.19 1.19 65 1024.3
20210723035612 23 229 9.7 14.5 0.00 1.19 1.19 64 1024.3
20210723035114 23 197 19.3 25.7 0.00 1.19 1.19 62 1024.2
20210723034612 23 165 11.3 17.7 0.00 1.19 1.19 58 1024.2
20210723034111 23 263 4.8 12.9 0.00 1.19 1.19 65 1024.2
20210723033615 23 211 3.2 4.8 0.00 1.19 1.19 63 1024.1
20210723033114 23 219 9.7 16.1 0.00 1.19 1.19 62 1024.0
20210723032616 23 193 11.3 24.1 0.00 1.19 1.19 61 1023.8
20210723032113 23 167 11.3 19.3 0.00 1.19 1.19 61 1023.8
20210723031612 23 212 27.4 38.6 0.03 1.19 1.19 61 1023.7
20210723031144 23 171 6.4 9.7 0.03 1.19 1.19 60 1024.0
20210723030613 23 47 51.5 69.2 0.03 1.19 1.19 62 1023.8
20210723030112 23 47 45.1 62.8 0.15 1.19 1.19 61 1023.8
20210723025618 23 347 12.9 17.7 0.15 1.19 1.19 61 1023.7
20210723025114 23 6 11.3 14.5 1.02 1.19 1.19 69 1023.4
20210723024613 22 356 9.7 14.5 1.07 1.19 1.19 69 1023.0
20210723024110 22 246 3.2 4.8 1.09 1.19 1.19 70 1022.5
20210723023613 22 247 11.3 19.3 1.09 1.19 1.19 71 1022.1
20210723023113 21 261 12.9 16.1 1.09 1.19 1.19 74 1022.1
20210723022610 21 251 12.9 16.1 1.09 1.19 1.19 75 1022.1
20210723022112 21 234 11.3 14.5 1.09 1.19 1.19 74 1022.0
20210723021610 21 333 11.3 17.7 1.09 1.19 1.19 81 1022.0
20210723021114 21 214 8.0 11.3 1.09 1.19 1.19 81 1022.1
20210723020612 21 243 6.4 14.5 1.09 1.19 1.19 81 1022.4
20210723020112 22 302 4.8 16.1 1.07 1.17 1.17 77 1022.6
20210723015614 22 318 16.1 33.8 1.02 1.04 1.04 69 1022.5
20210723015112 24 329 11.3 17.7 0.69 0.69 0.69 67 1022.2
20210723014615 25 96 6.4 8.0 0.18 0.18 0.18 59 1022.2
20210723014115 25 201 14.5 24.1 0.10 0.13 0.13 55 1021.8
20210723013613 26 238 11.3 16.1 0.08 0.10 0.10 54 1021.4
20210723013115 26 223 16.1 24.1 0.08 0.10 0.10 51 1021.3
20210723012612 27 198 11.3 14.5 0.08 0.10 0.10 49 1021.4
20210723012111 27 184 8.0 12.9 0.08 0.10 0.10 48 1021.3
20210723011614 27 149 8.0 11.3 0.08 0.10 0.10 51 1021.1
20210723011112 29 337 3.2 8.0 0.10 0.10 0.10 46 1020.4
20210723010614 30 304 6.4 12.9 0.08 0.10 0.10 37 1020.2
20210723010114 30 258 9.7 11.3 0.08 0.08 0.08 37 1019.5
20210723005612 30 221 17.7 20.9 0.08 0.08 0.08 37 1019.0
20210723005112 31 193 14.5 24.1 0.03 0.03 0.03 34 1018.8
20210723004612 31 200 8.0 14.5 0.03 0.03 0.03 37 1018.6
20210723004112 31 179 8.0 14.5 0.03 0.03 0.03 35 1018.5
20210723003613 32 187 8.0 11.3 0.03 0.03 0.03 35 1018.6
20210723003115 32 176 9.7 17.7 0.03 0.03 0.03 33 1018.6
20210723002614 32 185 9.7 12.9 0.00 0.03 0.00 32 1018.6
20210723002114 33 194 9.7 11.3 0.00 0.03 0.00 32 1018.6
20210723001616 33 189 6.4 11.3 0.00 0.00 0.00 31 1018.6
20210723001112 33 186 8.0 12.9 0.00 0.00 0.00 31 1018.6
20210723000615 33 190 4.8 8.0 0.00 0.03 0.00 31 1018.5
20210723000143 33 203 6.4 9.7 0.00 0.03 0.00 31 1018.5
20210722235611 33 153 3.2 4.8 0.00 0.05 0.00 32 1018.6
20210722235111 32 176 4.8 9.7 0.00 0.08 0.00 32 1018.6
20210722234612 33 124 3.2 8.0 0.00 0.08 0.00 32 1018.7
20210722234113 33 126 4.8 8.0 0.00 0.08 0.00 32 1018.7
20210722233615 33 142 6.4 11.3 0.00 0.08 0.00 31 1018.6
20210722233116 33 189 6.4 11.3 0.00 0.08 0.00 30 1018.6
20210722232612 33 165 6.4 9.7 0.00 0.08 0.00 31 1018.5
20210722232112 33 296 3.2 3.2 0.00 0.08 0.00 29 1018.3
20210722231611 33 183 4.8 9.7 0.00 0.08 0.00 30 1018.3
20210722231110 33 25 3.2 4.8 0.00 0.08 0.00 30 1018.3
20210722230614 33 61 3.2 4.8 0.00 0.08 0.00 31 1018.3
20210722230113 33 352 3.2 4.8 0.00 0.08 0.00 31 1018.3
20210722225613 33 335 3.2 4.8 0.00 0.08 0.00 32 1018.3
20210722225129 33 62 4.8 8.0 0.00 0.08 0.00 31 1018.5
20210722224615 33 62 3.2 6.4 0.00 0.08 0.00 31 1018.6
20210722224115 33 161 8.0 11.3 0.00 0.08 0.00 31 1018.7
20210722223642 33 185 6.4 11.3 0.00 0.08 0.00 30 1018.8
20210722223114 33 325 3.2 6.4 0.00 0.08 0.00 30 1018.8
20210722222614 33 41 4.8 9.7 0.00 0.08 0.00 32 1018.9
20210722222115 33 24 8.0 12.9 0.00 0.08 0.00 31 1018.9
20210722221613 33 20 8.0 11.3 0.00 0.08 0.00 31 1019.0
20210722221112 33 36 3.2 4.8 0.00 0.08 0.00 32 1019.1
20210722220612 33 207 4.8 6.4 0.00 0.08 0.00 31 1019.3
20210722220115 33 164 9.7 12.9 0.00 0.08 0.00 31 1019.4
20210722215615 33 27 3.2 6.4 0.00 0.08 0.00 32 1019.5
20210722215114 33 133 4.8 8.0 0.00 0.08 0.00 32 1019.5
20210722214616 33 148 11.3 14.5 0.00 0.08 0.00 32 1019.5
20210722214142 33 175 8.0 14.5 0.00 0.08 0.00 32 1019.6
20210722213614 33 148 8.0 14.5 0.00 0.08 0.00 33 1019.6
20210722213112 33 109 6.4 11.3 0.00 0.08 0.00 32 1019.6
20210722212612 33 123 9.7 14.5 0.00 0.08 0.00 33 1019.6
20210722212114 33 66 3.2 6.4 0.00 0.08 0.00 33 1019.7
20210722211616 33 169 6.4 11.3 0.00 0.08 0.00 33 1019.8
20210722211111 33 171 6.4 11.3 0.00 0.08 0.00 33 1019.7
20210722210626 33 167 11.3 14.5 0.00 0.08 0.00 33 1019.8
20210722210113 32 233 3.2 9.7 0.00 0.08 0.00 33 1019.9
20210722205612 32 145 6.4 11.3 0.00 0.08 0.00 33 1020.1
20210722205112 32 138 6.4 11.3 0.00 0.08 0.00 34 1020.2
20210722204631 32 70 6.4 11.3 0.00 0.08 0.00 34 1020.2
20210722204113 32 116 4.8 8.0 0.00 0.08 0.00 35 1020.3
20210722203617 32 87 4.8 9.7 0.00 0.08 0.00 35 1020.4
20210722203110 31 121 8.0 14.5 0.00 0.08 0.00 34 1020.6
20210722202643 31 92 4.8 8.0 0.00 0.08 0.00 35 1020.6
20210722202110 32 170 9.7 16.1 0.00 0.08 0.00 35 1020.7
20210722201613 31 141 8.0 14.5 0.00 0.08 0.00 35 1020.9
20210722201111 31 148 3.2 8.0 0.00 0.08 0.00 36 1020.9
20210722200612 31 197 4.8 8.0 0.00 0.08 0.00 36 1021.0
20210722200113 31 174 9.7 16.1 0.00 0.08 0.00 37 1021.1
20210722195612 31 170 8.0 9.7 0.00 0.08 0.00 36 1021.1
20210722195115 31 167 8.0 12.9 0.00 0.08 0.00 36 1021.1
20210722194614 31 173 9.7 14.5 0.00 0.08 0.00 36 1021.1
20210722194116 31 73 3.2 6.4 0.00 0.08 0.00 37 1021.2
20210722193615 31 93 8.0 16.1 0.00 0.08 0.00 36 1021.3
20210722193115 31 137 6.4 14.5 0.00 0.08 0.00 36 1021.3
20210722192610 31 151 6.4 11.3 0.00 0.08 0.00 36 1021.3
20210722192112 31 162 11.3 14.5 0.00 0.08 0.00 36 1021.3
20210722191614 31 162 9.7 16.1 0.00 0.08 0.00 36 1021.4
20210722191114 31 115 6.4 11.3 0.00 0.08 0.00 36 1021.6
20210722190612 31 185 8.0 11.3 0.00 0.08 0.00 36 1021.6
20210722190117 31 148 6.4 12.9 0.00 0.08 0.00 37 1021.7
20210722185614 31 160 8.0 12.9 0.00 0.08 0.00 37 1021.8
20210722185113 31 176 11.3 16.1 0.00 0.08 0.00 38 1021.7
20210722184612 30 155 9.7 14.5 0.00 0.08 0.00 37 1021.8
20210722184113 30 161 11.3 16.1 0.00 0.08 0.00 38 1021.8
20210722183616 30 144 11.3 17.7 0.00 0.08 0.00 39 1021.9
20210722183143 30 157 9.7 14.5 0.00 0.08 0.00 39 1021.9
20210722182613 30 148 8.0 12.9 0.00 0.08 0.00 39 1021.9
20210722182113 30 151 11.3 14.5 0.00 0.08 0.00 38 1021.9
20210722181620 30 155 8.0 12.9 0.00 0.08 0.00 40 1021.9
20210722181115 30 161 11.3 16.1 0.00 0.08 0.00 39 1022.0
20210722180615 30 155 4.8 11.3 0.00 0.08 0.00 41 1022.0
20210722180110 29 152 9.7 14.5 0.00 0.08 0.00 40 1022.1
20210722175614 28 166 9.7 12.9 0.00 0.08 0.00 41 1022.1
20210722175115 29 163 8.0 14.5 0.00 0.08 0.00 41 1022.1
20210722174613 29 154 11.3 14.5 0.00 0.08 0.00 41 1022.1
20210722174110 29 173 11.3 14.5 0.00 0.08 0.00 41 1022.2
20210722173616 28 172 9.7 14.5 0.00 0.08 0.00 42 1022.2
20210722173112 28 149 9.7 14.5 0.00 0.08 0.00 42 1022.2
20210722172613 28 158 11.3 14.5 0.00 0.08 0.00 41 1022.2
20210722172114 28 125 4.8 9.7 0.00 0.08 0.00 43 1022.2
20210722171612 28 161 8.0 12.9 0.00 0.08 0.00 43 1022.2
20210722171115 28 155 9.7 17.7 0.00 0.08 0.00 42 1022.4
20210722170615 28 138 11.3 17.7 0.00 0.08 0.00 42 1022.4
20210722170113 28 166 11.3 16.1 0.00 0.08 0.00 42 1022.4
20210722165615 27 142 8.0 14.5 0.00 0.08 0.00 43 1022.4
20210722165111 27 158 9.7 12.9 0.00 0.08 0.00 44 1022.5
20210722164614 27 158 12.9 17.7 0.00 0.08 0.00 44 1022.5